createdAt,value
2019-04-07T00:00:01.302Z,11.12
2019-04-07T00:01:01.286Z,11.12
2019-04-07T00:02:01.328Z,11.12
2019-04-07T00:03:01.437Z,11.12
2019-04-07T00:04:05.463Z,11.06
2019-04-07T00:05:15.074Z,11.06
2019-04-07T00:06:01.495Z,11.06
2019-04-07T00:07:01.515Z,11.06
2019-04-07T00:08:01.895Z,11
2019-04-07T00:09:01.902Z,11.06
2019-04-07T00:10:02.009Z,11.06
2019-04-07T00:11:01.587Z,11.06
2019-04-07T00:12:01.927Z,11.06
2019-04-07T00:13:01.376Z,11.06
2019-04-07T00:14:01.308Z,11.06
2019-04-07T00:15:01.314Z,11.06
2019-04-07T00:16:02.212Z,11.06
2019-04-07T00:17:02.010Z,11.06
2019-04-07T00:18:01.266Z,11.06
2019-04-07T00:19:01.815Z,11.06
2019-04-07T00:20:01.340Z,11.06
2019-04-07T00:21:01.729Z,11.06
2019-04-07T00:22:01.251Z,11
2019-04-07T00:23:01.279Z,11.06
2019-04-07T00:24:02.676Z,11.06
2019-04-07T00:25:02.753Z,11.06
2019-04-07T00:26:02.449Z,11.06
2019-04-07T00:27:01.576Z,11
2019-04-07T00:28:01.856Z,11
2019-04-07T00:29:01.895Z,10.94
2019-04-07T00:30:02.349Z,10.94
2019-04-07T00:31:02.679Z,10.94
2019-04-07T00:32:01.290Z,10.94
2019-04-07T00:33:02.051Z,10.94
2019-04-07T00:34:01.810Z,10.88
2019-04-07T00:35:01.259Z,10.88
2019-04-07T00:36:01.270Z,10.88
2019-04-07T00:37:01.317Z,10.81
2019-04-07T00:38:02.406Z,10.81
2019-04-07T00:39:01.782Z,10.81
2019-04-07T00:40:01.278Z,10.81
2019-04-07T00:41:01.643Z,10.81
2019-04-07T00:42:02.030Z,10.81
2019-04-07T00:43:01.277Z,10.75
2019-04-07T00:44:01.790Z,10.75
2019-04-07T00:45:03.657Z,10.75
2019-04-07T00:46:01.545Z,10.75
2019-04-07T00:47:01.210Z,10.75
2019-04-07T00:48:01.559Z,10.75
2019-04-07T00:49:03.131Z,10.75
2019-04-07T00:50:01.681Z,10.75
2019-04-07T00:51:01.685Z,10.75
2019-04-07T00:52:01.427Z,10.75
2019-04-07T00:53:01.471Z,10.75
2019-04-07T00:54:02.440Z,10.75
2019-04-07T00:55:02.447Z,10.75
2019-04-07T00:56:01.474Z,10.75
2019-04-07T00:57:01.231Z,10.75
2019-04-07T00:58:01.276Z,10.75
2019-04-07T00:59:03.002Z,10.69
2019-04-07T01:00:01.958Z,10.69
2019-04-07T01:01:01.209Z,10.69
2019-04-07T01:02:01.652Z,10.63
2019-04-07T01:03:02.127Z,10.63
2019-04-07T01:04:01.331Z,10.63
2019-04-07T01:05:02.722Z,10.63
2019-04-07T01:06:01.370Z,10.63
2019-04-07T01:07:01.214Z,10.56
2019-04-07T01:08:01.936Z,10.56
2019-04-07T01:09:01.978Z,10.5
2019-04-07T01:10:03.745Z,10.5
2019-04-07T01:11:01.546Z,10.5
2019-04-07T01:12:01.338Z,10.5
2019-04-07T01:13:01.249Z,10.5
2019-04-07T01:14:01.769Z,10.44
2019-04-07T01:15:01.227Z,10.44
2019-04-07T01:16:01.568Z,10.44
2019-04-07T01:17:01.236Z,10.44
2019-04-07T01:18:01.318Z,10.44
2019-04-07T01:19:01.174Z,10.44
2019-04-07T01:20:01.360Z,10.38
2019-04-07T01:21:02.441Z,10.38
2019-04-07T01:22:01.349Z,10.31
2019-04-07T01:23:03.068Z,10.31
2019-04-07T01:24:01.224Z,10.31
2019-04-07T01:25:01.259Z,10.31
2019-04-07T01:26:01.216Z,10.31
2019-04-07T01:27:01.168Z,10.31
2019-04-07T01:28:01.175Z,10.31
2019-04-07T01:29:01.674Z,10.25
2019-04-07T01:30:02.994Z,10.25
2019-04-07T01:31:01.201Z,10.31
2019-04-07T01:32:01.182Z,10.25
2019-04-07T01:33:01.171Z,10.25
2019-04-07T01:34:01.222Z,10.25
2019-04-07T01:35:01.501Z,10.25
2019-04-07T01:36:01.185Z,10.19
2019-04-07T01:37:01.251Z,10.19
2019-04-07T01:38:03.768Z,10.13
2019-04-07T01:39:01.742Z,10.19
2019-04-07T01:40:03.298Z,10.13
2019-04-07T01:41:01.182Z,10.13
2019-04-07T01:42:01.864Z,10.06
2019-04-07T01:43:01.261Z,10
2019-04-07T01:44:01.204Z,10
2019-04-07T01:45:01.834Z,10
2019-04-07T01:46:02.278Z,9.94
2019-04-07T01:47:01.569Z,10
2019-04-07T01:48:01.279Z,9.94
2019-04-07T01:49:01.247Z,10
2019-04-07T01:50:01.162Z,9.94
2019-04-07T01:51:01.672Z,9.94
2019-04-07T01:52:01.946Z,9.94
2019-04-07T01:53:01.163Z,9.88
2019-04-07T01:54:01.119Z,9.81
2019-04-07T01:55:01.220Z,9.81
2019-04-07T01:56:01.985Z,9.69
2019-04-07T01:57:01.595Z,9.75
2019-04-07T01:58:01.165Z,9.69
2019-04-07T01:59:01.774Z,9.63
2019-04-07T02:00:02.968Z,9.69
2019-04-07T02:01:01.959Z,9.63
2019-04-07T02:02:02.291Z,9.63
2019-04-07T02:03:01.189Z,9.63
2019-04-07T02:04:01.936Z,9.63
2019-04-07T02:05:01.134Z,9.63
2019-04-07T02:06:07.041Z,9.63
2019-04-07T02:07:01.986Z,9.56
2019-04-07T02:08:01.519Z,9.56
2019-04-07T02:09:02.936Z,9.5
2019-04-07T02:10:01.155Z,9.5
2019-04-07T02:11:01.513Z,9.5
2019-04-07T02:12:03.606Z,9.44
2019-04-07T02:13:02.259Z,9.5
2019-04-07T02:14:01.182Z,9.5
2019-04-07T02:15:01.230Z,9.5
2019-04-07T02:16:01.089Z,9.5
2019-04-07T02:17:01.986Z,9.44
2019-04-07T02:18:01.107Z,9.44
2019-04-07T02:19:02.030Z,9.44
2019-04-07T02:20:01.535Z,9.44
2019-04-07T02:21:01.077Z,9.38
2019-04-07T02:22:01.113Z,9.38
2019-04-07T02:23:01.100Z,9.38
2019-04-07T02:24:03.880Z,9.31
2019-04-07T02:25:01.971Z,9.31
2019-04-07T02:26:01.134Z,9.25
2019-04-07T02:27:01.123Z,9.25
2019-04-07T02:28:01.353Z,9.31
2019-04-07T02:29:01.770Z,9.25
2019-04-07T02:30:01.101Z,9.25
2019-04-07T02:31:01.229Z,9.25
2019-04-07T02:32:01.797Z,9.25
2019-04-07T02:33:02.518Z,9.25
2019-04-07T02:34:01.100Z,9.25
2019-04-07T02:35:02.095Z,9.25
2019-04-07T02:36:32.189Z,9.25
2019-04-07T02:37:01.131Z,9.25
2019-04-07T02:38:02.519Z,9.25
2019-04-07T02:39:01.304Z,9.31
2019-04-07T02:40:06.394Z,9.25
2019-04-07T02:41:02.162Z,9.31
2019-04-07T02:42:01.156Z,9.25
2019-04-07T02:43:03.451Z,9.31
2019-04-07T02:44:03.105Z,9.25
2019-04-07T02:45:01.823Z,9.25
2019-04-07T02:46:01.125Z,9.25
2019-04-07T02:47:01.113Z,9.19
2019-04-07T02:48:01.605Z,9.19
2019-04-07T02:49:02.119Z,9.19
2019-04-07T02:50:03.928Z,9.19
2019-04-07T02:51:01.549Z,9.19
2019-04-07T02:52:01.098Z,9.13
2019-04-07T02:53:03.267Z,9.13
2019-04-07T02:54:01.087Z,9.19
2019-04-07T02:55:02.861Z,9.13
2019-04-07T02:56:03.610Z,9.13
2019-04-07T02:57:01.063Z,9.13
2019-04-07T02:58:03.169Z,9.13
2019-04-07T02:59:02.122Z,9.13
2019-04-07T03:00:01.465Z,9.13
2019-04-07T03:01:02.301Z,9.13
2019-04-07T03:02:01.345Z,9.13
2019-04-07T03:03:01.950Z,9.13
2019-04-07T03:04:05.278Z,9.13
2019-04-07T03:05:02.602Z,9.13
2019-04-07T03:06:02.282Z,9.13
2019-04-07T03:07:01.117Z,9.13
2019-04-07T03:08:01.925Z,9.13
2019-04-07T03:09:01.044Z,9.13
2019-04-07T03:10:01.141Z,9.19
2019-04-07T03:11:02.362Z,9.13
2019-04-07T03:12:05.394Z,9.19
2019-04-07T03:13:01.382Z,9.19
2019-04-07T03:14:01.046Z,9.13
2019-04-07T03:15:01.068Z,9.13
2019-04-07T03:16:02.366Z,9.13
2019-04-07T03:17:02.684Z,9.13
2019-04-07T03:18:01.163Z,9.13
2019-04-07T03:19:02.124Z,9.13
2019-04-07T03:20:01.091Z,9.13
2019-04-07T03:21:02.641Z,9.13
2019-04-07T03:22:01.443Z,9.13
2019-04-07T03:23:03.613Z,9.13
2019-04-07T03:24:01.048Z,9.06
2019-04-07T03:25:01.052Z,9.06
2019-04-07T03:26:02.528Z,9.06
2019-04-07T03:27:01.194Z,9
2019-04-07T03:28:01.764Z,9
2019-04-07T03:29:01.576Z,9
2019-04-07T03:30:06.549Z,9
2019-04-07T03:31:08.215Z,9
2019-04-07T03:32:19.732Z,8.94
2019-04-07T03:33:23.138Z,9
2019-04-07T03:34:08.699Z,8.94
2019-04-07T03:35:07.710Z,8.94
2019-04-07T03:36:23.588Z,8.94
2019-04-07T03:38:02.235Z,8.94
2019-04-07T03:39:03.707Z,8.94
2019-04-07T03:40:04.972Z,9
2019-04-07T03:41:01.017Z,8.94
2019-04-07T03:42:01.404Z,8.94
2019-04-07T03:43:01.873Z,8.94
2019-04-07T03:44:01.613Z,8.94
2019-04-07T03:45:01.465Z,8.94
2019-04-07T03:46:01.250Z,8.94
2019-04-07T03:47:01.810Z,8.88
2019-04-07T03:48:02.485Z,8.94
2019-04-07T03:49:02.239Z,8.94
2019-04-07T03:50:04.257Z,8.94
2019-04-07T03:51:01.804Z,9
2019-04-07T03:52:05.918Z,8.94
2019-04-07T03:53:03.215Z,9
2019-04-07T03:54:01.033Z,8.94
2019-04-07T03:55:01.648Z,8.94
2019-04-07T03:56:02.123Z,8.94
2019-04-07T03:57:01.090Z,9
2019-04-07T03:58:01.900Z,9
2019-04-07T03:59:01.136Z,9
2019-04-07T04:00:02.633Z,8.94
2019-04-07T04:01:01.066Z,9
2019-04-07T04:02:01.169Z,8.94
2019-04-07T04:03:00.972Z,9
2019-04-07T04:04:02.507Z,9
2019-04-07T04:05:01.193Z,9.06
2019-04-07T04:06:01.028Z,9
2019-04-07T04:07:39.083Z,9
2019-04-07T04:08:02.329Z,9.06
2019-04-07T04:09:02.388Z,9.06
2019-04-07T04:10:01.462Z,9.06
2019-04-07T04:11:02.984Z,9.06
2019-04-07T04:12:01.653Z,9.06
2019-04-07T04:13:01.275Z,9.06
2019-04-07T04:14:03.133Z,9.06
2019-04-07T04:15:03.874Z,9.06
2019-04-07T04:16:01.274Z,9.13
2019-04-07T04:17:02.367Z,9.06
2019-04-07T04:18:01.452Z,9.13
2019-04-07T04:19:01.007Z,9.13
2019-04-07T04:20:00.975Z,9.06
2019-04-07T04:21:01.746Z,9.13
2019-04-07T04:22:02.414Z,9.13
2019-04-07T04:23:01.071Z,9.13
2019-04-07T04:24:01.025Z,9.13
2019-04-07T04:25:01.551Z,9.13
2019-04-07T04:26:02.719Z,9.13
2019-04-07T04:27:01.450Z,9.13
2019-04-07T04:28:01.696Z,9.13
2019-04-07T04:29:04.261Z,9.19
2019-04-07T04:30:01.224Z,9.13
2019-04-07T04:31:01.087Z,9.13
2019-04-07T04:32:01.994Z,9.13
2019-04-07T04:33:02.535Z,9.19
2019-04-07T04:34:02.100Z,9.19
2019-04-07T04:35:01.631Z,9.13
2019-04-07T04:36:00.938Z,9.19
2019-04-07T04:37:02.055Z,9.19
2019-04-07T04:38:02.331Z,9.19
2019-04-07T04:39:01.010Z,9.25
2019-04-07T04:40:04.776Z,9.25
2019-04-07T04:41:03.240Z,9.19
2019-04-07T04:42:01.216Z,9.19
2019-04-07T04:43:03.053Z,9.19
2019-04-07T04:44:02.072Z,9.19
2019-04-07T04:45:04.056Z,9.19
2019-04-07T04:46:01.697Z,9.19
2019-04-07T04:47:03.081Z,9.19
2019-04-07T04:48:00.949Z,9.19
2019-04-07T04:49:00.939Z,9.19
2019-04-07T04:50:04.245Z,9.25
2019-04-07T04:51:00.988Z,9.19
2019-04-07T04:52:01.045Z,9.25
2019-04-07T04:53:02.113Z,9.25
2019-04-07T04:54:02.124Z,9.25
2019-04-07T04:55:02.359Z,9.19
2019-04-07T04:56:01.318Z,9.19
2019-04-07T04:57:09.676Z,9.25
2019-04-07T04:58:00.935Z,9.25
2019-04-07T04:59:01.138Z,9.25
2019-04-07T05:00:02.493Z,9.19
2019-04-07T05:01:04.665Z,9.19
2019-04-07T05:02:01.631Z,9.25
2019-04-07T05:03:01.255Z,9.25
2019-04-07T05:04:01.056Z,9.19
2019-04-07T05:05:04.208Z,9.25
2019-04-07T05:06:04.025Z,9.19
2019-04-07T05:07:01.723Z,9.19
2019-04-07T05:08:07.025Z,9.25
2019-04-07T05:09:02.358Z,9.25
2019-04-07T05:10:01.853Z,9.19
2019-04-07T05:11:01.954Z,9.25
2019-04-07T05:12:00.938Z,9.19
2019-04-07T05:13:01.664Z,9.25
2019-04-07T05:14:01.040Z,9.19
2019-04-07T05:15:01.981Z,9.25
2019-04-07T05:16:01.347Z,9.25
2019-04-07T05:17:01.357Z,9.19
2019-04-07T05:18:01.899Z,9.19
2019-04-07T05:19:00.973Z,9.19
2019-04-07T05:20:01.389Z,9.19
2019-04-07T05:21:00.990Z,9.19
2019-04-07T05:22:02.593Z,9.13
2019-04-07T05:23:02.585Z,9.19
2019-04-07T05:24:01.603Z,9.13
2019-04-07T05:25:01.144Z,9.19
2019-04-07T05:26:00.919Z,9.19
2019-04-07T05:27:01.214Z,9.19
2019-04-07T05:28:01.412Z,9.19
2019-04-07T05:29:01.598Z,9.19
2019-04-07T05:30:02.582Z,9.19
2019-04-07T05:31:00.883Z,9.19
2019-04-07T05:32:01.952Z,9.25
2019-04-07T05:33:01.142Z,9.25
2019-04-07T05:34:00.988Z,9.25
2019-04-07T05:35:01.282Z,9.25
2019-04-07T05:36:01.017Z,9.25
2019-04-07T05:37:02.441Z,9.25
2019-04-07T05:38:09.520Z,9.25
2019-04-07T05:39:01.197Z,9.25
2019-04-07T05:40:05.703Z,9.25
2019-04-07T05:41:00.859Z,9.31
2019-04-07T05:42:01.553Z,9.31
2019-04-07T05:43:02.202Z,9.31
2019-04-07T05:44:01.559Z,9.31
2019-04-07T05:45:00.952Z,9.31
2019-04-07T05:46:01.745Z,9.38
2019-04-07T05:47:01.779Z,9.38
2019-04-07T05:48:00.897Z,9.38
2019-04-07T05:49:01.000Z,9.38
2019-04-07T05:50:06.447Z,9.38
2019-04-07T05:51:01.376Z,9.44
2019-04-07T05:52:06.969Z,9.38
2019-04-07T05:53:00.795Z,9.38
2019-04-07T05:54:01.504Z,9.44
2019-04-07T05:55:01.541Z,9.38
2019-04-07T05:56:01.307Z,9.44
2019-04-07T05:57:02.833Z,9.44
2019-04-07T05:58:08.671Z,9.44
2019-04-07T05:59:02.734Z,9.5
2019-04-07T06:00:02.611Z,9.5
2019-04-07T06:01:00.799Z,9.5
2019-04-07T06:02:04.378Z,9.56
2019-04-07T06:03:09.631Z,9.5
2019-04-07T06:04:02.770Z,9.56
2019-04-07T06:05:01.460Z,9.56
2019-04-07T06:06:00.922Z,9.56
2019-04-07T06:07:00.928Z,9.56
2019-04-07T06:09:00.882Z,9.63
2019-04-07T06:10:02.276Z,9.69
2019-04-07T06:11:02.701Z,9.63
2019-04-07T06:12:10.864Z,9.63
2019-04-07T06:13:00.797Z,9.69
2019-04-07T06:14:01.746Z,9.69
2019-04-07T06:15:00.800Z,9.69
2019-04-07T06:16:00.821Z,9.69
2019-04-07T06:17:01.142Z,9.75
2019-04-07T06:18:02.783Z,9.75
2019-04-07T06:19:09.136Z,9.75
2019-04-07T06:20:03.441Z,9.75
2019-04-07T06:21:01.197Z,9.81
2019-04-07T06:22:02.505Z,9.81
2019-04-07T06:23:00.777Z,9.81
2019-04-07T06:24:01.006Z,9.88
2019-04-07T06:25:07.392Z,9.81
2019-04-07T06:26:00.869Z,9.88
2019-04-07T06:27:01.098Z,9.88
2019-04-07T06:28:00.762Z,9.94
2019-04-07T06:29:02.734Z,9.88
2019-04-07T06:30:01.160Z,9.94
2019-04-07T06:31:03.465Z,9.94
2019-04-07T06:32:11.509Z,9.94
2019-04-07T06:33:07.037Z,9.94
2019-04-07T06:34:00.884Z,10
2019-04-07T06:35:02.841Z,9.94
2019-04-07T06:36:00.764Z,10
2019-04-07T06:37:00.868Z,10
2019-04-07T06:38:09.155Z,10
2019-04-07T06:39:01.691Z,10
2019-04-07T06:40:01.550Z,10.06
2019-04-07T06:41:03.615Z,10.06
2019-04-07T06:42:03.678Z,10.06
2019-04-07T06:43:07.617Z,10.06
2019-04-07T06:44:24.378Z,10.13
2019-04-07T06:45:02.013Z,10.06
2019-04-07T06:46:00.702Z,10.13
2019-04-07T06:47:04.912Z,10.13
2019-04-07T06:48:11.395Z,10.19
2019-04-07T06:49:02.779Z,10.19
2019-04-07T06:50:00.877Z,10.19
2019-04-07T06:51:04.059Z,10.19
2019-04-07T06:52:05.083Z,10.19
2019-04-07T06:53:00.881Z,10.19
2019-04-07T06:54:02.510Z,10.25
2019-04-07T06:55:00.720Z,10.25
2019-04-07T06:56:06.188Z,10.25
2019-04-07T06:57:07.553Z,10.31
2019-04-07T06:58:02.277Z,10.25
2019-04-07T06:59:00.888Z,10.31
2019-04-07T07:00:01.281Z,10.31
2019-04-07T07:01:03.628Z,10.38
2019-04-07T07:02:00.918Z,10.38
2019-04-07T07:03:04.602Z,10.38
2019-04-07T07:04:02.024Z,10.38
2019-04-07T07:05:00.709Z,10.38
2019-04-07T07:06:01.557Z,10.38
2019-04-07T07:07:01.246Z,10.38
2019-04-07T07:08:01.739Z,10.44
2019-04-07T07:09:02.935Z,10.44
2019-04-07T07:10:06.760Z,10.44
2019-04-07T07:11:01.918Z,10.44
2019-04-07T07:12:01.860Z,10.44
2019-04-07T07:13:36.721Z,10.5
2019-04-07T07:14:00.762Z,10.56
2019-04-07T07:15:04.857Z,10.56
2019-04-07T07:16:15.597Z,10.63
2019-04-07T07:17:00.710Z,10.63
2019-04-07T07:18:00.758Z,10.63
2019-04-07T07:19:02.660Z,10.63
2019-04-07T07:20:06.957Z,10.63
2019-04-07T07:21:05.251Z,10.69
2019-04-07T07:22:02.374Z,10.75
2019-04-07T07:23:00.975Z,10.75
2019-04-07T07:24:01.496Z,10.75
2019-04-07T07:25:01.679Z,10.75
2019-04-07T07:26:04.467Z,10.81
2019-04-07T07:27:12.441Z,10.75
2019-04-07T07:28:01.836Z,10.81
2019-04-07T07:29:01.110Z,10.81
2019-04-07T07:30:01.462Z,10.81
2019-04-07T07:31:01.168Z,10.81
2019-04-07T07:32:05.127Z,10.81
2019-04-07T07:33:00.915Z,10.81
2019-04-07T07:34:00.725Z,10.81
2019-04-07T07:35:00.695Z,10.81
2019-04-07T07:36:01.501Z,10.81
2019-04-07T07:37:00.725Z,10.88
2019-04-07T07:38:00.651Z,10.88
2019-04-07T07:39:14.672Z,10.88
2019-04-07T07:40:10.112Z,10.88
2019-04-07T07:41:04.989Z,10.88
2019-04-07T07:42:00.666Z,10.94
2019-04-07T07:43:00.758Z,10.94
2019-04-07T07:44:09.930Z,11
2019-04-07T07:45:01.698Z,11
2019-04-07T07:46:00.661Z,11
2019-04-07T07:47:00.735Z,11
2019-04-07T07:48:01.170Z,11.06
2019-04-07T07:49:02.412Z,11.06
2019-04-07T07:50:09.071Z,11.12
2019-04-07T07:51:03.990Z,11.12
2019-04-07T07:52:01.602Z,11.12
2019-04-07T07:53:01.587Z,11.19
2019-04-07T07:54:02.311Z,11.19
2019-04-07T07:55:04.119Z,11.25
2019-04-07T07:56:08.171Z,11.25
2019-04-07T07:57:02.609Z,11.31
2019-04-07T07:58:01.312Z,11.38
2019-04-07T07:59:05.574Z,11.38
2019-04-07T08:00:08.594Z,11.44
2019-04-07T08:01:01.655Z,11.5
2019-04-07T08:02:03.869Z,11.44
2019-04-07T08:03:00.879Z,11.56
2019-04-07T08:04:00.988Z,11.56
2019-04-07T08:05:00.835Z,11.63
2019-04-07T08:06:08.607Z,11.69
2019-04-07T08:07:02.900Z,11.69
2019-04-07T08:08:01.972Z,11.81
2019-04-07T08:09:27.242Z,11.81
2019-04-07T08:10:03.248Z,11.81
2019-04-07T08:11:03.013Z,11.88
2019-04-07T08:12:03.988Z,11.88
2019-04-07T08:13:09.173Z,11.94
2019-04-07T08:14:01.418Z,11.94
2019-04-07T08:15:00.651Z,11.94
2019-04-07T08:16:00.718Z,12.06
2019-04-07T08:17:04.300Z,12.06
2019-04-07T08:18:09.894Z,12.06
2019-04-07T08:19:01.706Z,12.13
2019-04-07T08:20:02.532Z,12.13
2019-04-07T08:21:00.612Z,12.13
2019-04-07T08:22:02.817Z,12.19
2019-04-07T08:23:00.901Z,12.19
2019-04-07T08:24:02.503Z,12.19
2019-04-07T08:25:02.595Z,12.25
2019-04-07T08:26:00.696Z,12.25
2019-04-07T08:27:00.604Z,12.25
2019-04-07T08:28:05.036Z,12.31
2019-04-07T08:29:14.703Z,12.37
2019-04-07T08:30:14.017Z,12.44
2019-04-07T08:31:01.053Z,12.44
2019-04-07T08:32:00.864Z,12.5
2019-04-07T08:33:03.768Z,12.5
2019-04-07T08:34:03.973Z,12.56
2019-04-07T08:35:08.068Z,12.56
2019-04-07T08:36:00.952Z,12.63
2019-04-07T08:37:01.563Z,12.63
2019-04-07T08:38:04.542Z,12.75
2019-04-07T08:39:01.060Z,12.69
2019-04-07T08:40:09.311Z,12.75
2019-04-07T08:41:16.638Z,12.81
2019-04-07T08:42:01.519Z,12.81
2019-04-07T08:43:01.365Z,12.88
2019-04-07T08:44:00.665Z,12.94
2019-04-07T08:45:03.626Z,12.88
2019-04-07T08:46:06.453Z,13
2019-04-07T08:47:02.727Z,13
2019-04-07T08:48:01.025Z,13.06
2019-04-07T08:49:00.624Z,13.13
2019-04-07T08:50:00.579Z,13.13
2019-04-07T08:51:01.304Z,13.19
2019-04-07T08:52:12.948Z,13.19
2019-04-07T08:53:00.553Z,13.19
2019-04-07T08:54:00.605Z,13.25
2019-04-07T08:55:00.590Z,13.19
2019-04-07T08:56:00.649Z,13.25
2019-04-07T08:57:00.812Z,13.25
2019-04-07T08:58:06.805Z,13.31
2019-04-07T08:59:00.540Z,13.31
2019-04-07T09:00:00.670Z,13.31
2019-04-07T09:01:00.578Z,13.31
2019-04-07T09:02:00.638Z,13.38
2019-04-07T09:03:17.288Z,13.44
2019-04-07T09:04:01.643Z,13.38
2019-04-07T09:05:02.917Z,13.5
2019-04-07T09:06:01.280Z,13.5
2019-04-07T09:07:05.329Z,13.56
2019-04-07T09:08:07.694Z,13.62
2019-04-07T09:09:00.688Z,13.62
2019-04-07T09:10:01.302Z,13.69
2019-04-07T09:11:00.649Z,13.75
2019-04-07T09:12:01.706Z,13.75
2019-04-07T09:13:10.542Z,13.75
2019-04-07T09:14:00.569Z,13.81
2019-04-07T09:15:13.185Z,13.81
2019-04-07T09:16:00.521Z,13.88
2019-04-07T09:17:00.594Z,13.81
2019-04-07T09:18:01.138Z,13.81
2019-04-07T09:19:09.664Z,13.94
2019-04-07T09:20:10.932Z,13.94
2019-04-07T09:21:01.038Z,13.94
2019-04-07T09:22:00.852Z,14
2019-04-07T09:23:00.779Z,14
2019-04-07T09:24:00.768Z,14.06
2019-04-07T09:25:11.240Z,14
2019-04-07T09:26:00.527Z,13.94
2019-04-07T09:27:01.385Z,13.88
2019-04-07T09:28:02.154Z,13.81
2019-04-07T09:29:01.228Z,13.88
2019-04-07T09:30:10.025Z,13.94
2019-04-07T09:31:04.832Z,13.88
2019-04-07T09:32:00.584Z,13.88
2019-04-07T09:33:01.536Z,13.88
2019-04-07T09:34:01.535Z,13.88
2019-04-07T09:35:01.764Z,13.88
2019-04-07T09:36:00.874Z,13.81
2019-04-07T09:37:00.644Z,13.88
2019-04-07T09:38:00.628Z,14
2019-04-07T09:39:04.362Z,14.06
2019-04-07T09:40:06.959Z,14.06
2019-04-07T09:41:01.709Z,14.19
2019-04-07T09:42:01.797Z,14.19
2019-04-07T09:43:01.543Z,14.25
2019-04-07T09:44:05.374Z,14.38
2019-04-07T09:45:00.662Z,14.31
2019-04-07T09:46:00.522Z,14.25
2019-04-07T09:47:01.014Z,14.25
2019-04-07T09:48:00.838Z,14.31
2019-04-07T09:49:02.227Z,14.38
2019-04-07T09:50:03.728Z,14.44
2019-04-07T09:51:08.772Z,14.44
2019-04-07T09:52:01.262Z,14.5
2019-04-07T09:53:01.397Z,14.5
2019-04-07T09:54:00.536Z,14.56
2019-04-07T09:55:01.632Z,14.56
2019-04-07T09:56:03.909Z,14.44
2019-04-07T09:57:07.561Z,14.31
2019-04-07T09:58:01.564Z,14.25
2019-04-07T09:59:00.514Z,14.19
2019-04-07T10:00:01.994Z,14.25
2019-04-07T10:01:00.515Z,14.25
2019-04-07T10:02:06.851Z,14.31
2019-04-07T10:03:16.442Z,14.38
2019-04-07T10:04:00.485Z,14.44
2019-04-07T10:05:00.498Z,14.44
2019-04-07T10:06:00.983Z,14.56
2019-04-07T10:07:04.840Z,14.63
2019-04-07T10:08:00.566Z,14.69
2019-04-07T10:09:02.278Z,14.75
2019-04-07T10:10:16.293Z,14.75
2019-04-07T10:11:00.893Z,14.75
2019-04-07T10:12:00.588Z,14.81
2019-04-07T10:13:00.913Z,14.81
2019-04-07T10:14:02.406Z,14.81
2019-04-07T10:15:00.501Z,14.69
2019-04-07T10:16:01.219Z,14.69
2019-04-07T10:17:01.347Z,14.63
2019-04-07T10:18:00.711Z,14.56
2019-04-07T10:19:00.917Z,14.56
2019-04-07T10:20:02.427Z,14.63
2019-04-07T10:21:01.758Z,14.69
2019-04-07T10:22:03.720Z,14.75
2019-04-07T10:23:01.924Z,14.81
2019-04-07T10:24:00.967Z,14.81
2019-04-07T10:25:00.569Z,14.81
2019-04-07T10:26:01.563Z,14.81
2019-04-07T10:27:01.604Z,14.87
2019-04-07T10:28:00.792Z,14.94
2019-04-07T10:29:00.791Z,15
2019-04-07T10:30:00.717Z,15
2019-04-07T10:31:00.433Z,15.06
2019-04-07T10:32:01.386Z,15.06
2019-04-07T10:33:03.201Z,15.13
2019-04-07T10:34:00.491Z,15.19
2019-04-07T10:35:02.547Z,15.19
2019-04-07T10:36:00.451Z,15.31
2019-04-07T10:37:05.246Z,15.38
2019-04-07T10:38:02.183Z,15.38
2019-04-07T10:39:01.001Z,15.44
2019-04-07T10:40:16.444Z,15.44
2019-04-07T10:41:02.147Z,15.5
2019-04-07T10:42:01.555Z,15.5
2019-04-07T10:43:01.589Z,15.5
2019-04-07T10:44:01.877Z,15.56
2019-04-07T10:45:00.791Z,15.5
2019-04-07T10:46:00.545Z,15.56
2019-04-07T10:47:01.384Z,15.56
2019-04-07T10:48:02.542Z,15.63
2019-04-07T10:49:01.515Z,15.56
2019-04-07T10:50:09.097Z,15.56
2019-04-07T10:51:00.450Z,15.5
2019-04-07T10:52:01.329Z,15.5
2019-04-07T10:53:00.517Z,15.5
2019-04-07T10:54:00.442Z,15.5
2019-04-07T10:55:01.360Z,15.56
2019-04-07T10:56:02.354Z,15.56
2019-04-07T10:57:01.210Z,15.63
2019-04-07T10:58:00.479Z,15.56
2019-04-07T10:59:00.474Z,15.63
2019-04-07T11:00:01.588Z,15.63
2019-04-07T11:01:01.142Z,15.69
2019-04-07T11:02:02.408Z,15.69
2019-04-07T11:03:01.096Z,15.75
2019-04-07T11:04:00.437Z,15.69
2019-04-07T11:05:00.836Z,15.75
2019-04-07T11:06:01.536Z,15.75
2019-04-07T11:07:00.407Z,15.75
2019-04-07T11:08:00.631Z,15.75
2019-04-07T11:09:00.433Z,15.75
2019-04-07T11:10:01.441Z,15.75
2019-04-07T11:11:00.416Z,15.81
2019-04-07T11:12:00.382Z,15.88
2019-04-07T11:13:03.171Z,15.88
2019-04-07T11:14:01.133Z,15.94
2019-04-07T11:15:01.161Z,15.88
2019-04-07T11:16:00.641Z,15.81
2019-04-07T11:17:02.632Z,15.75
2019-04-07T11:18:01.910Z,15.75
2019-04-07T11:19:00.420Z,15.81
2019-04-07T11:20:00.414Z,15.88
2019-04-07T11:21:02.708Z,15.88
2019-04-07T11:22:01.361Z,16
2019-04-07T11:23:03.100Z,16.06
2019-04-07T11:24:01.434Z,16.12
2019-04-07T11:25:01.301Z,16.19
2019-04-07T11:26:00.796Z,16.25
2019-04-07T11:27:00.424Z,16.31
2019-04-07T11:28:00.381Z,16.37
2019-04-07T11:29:00.375Z,16.44
2019-04-07T11:30:00.707Z,16.5
2019-04-07T11:31:02.368Z,16.56
2019-04-07T11:32:01.335Z,16.56
2019-04-07T11:33:02.745Z,16.62
2019-04-07T11:34:01.095Z,16.69
2019-04-07T11:35:00.396Z,16.69
2019-04-07T11:36:06.136Z,16.69
2019-04-07T11:37:01.689Z,16.75
2019-04-07T11:38:01.437Z,16.75
2019-04-07T11:39:00.761Z,16.81
2019-04-07T11:40:02.344Z,16.75
2019-04-07T11:41:00.467Z,16.75
2019-04-07T11:42:01.273Z,16.69
2019-04-07T11:43:00.745Z,16.62
2019-04-07T11:44:02.137Z,16.62
2019-04-07T11:45:00.405Z,16.69
2019-04-07T11:46:05.666Z,16.81
2019-04-07T11:47:02.326Z,16.81
2019-04-07T11:48:00.354Z,16.94
2019-04-07T11:49:01.041Z,17
2019-04-07T11:50:01.452Z,17.06
2019-04-07T11:51:00.340Z,17.06
2019-04-07T11:52:00.405Z,17.06
2019-04-07T11:53:01.903Z,17.12
2019-04-07T11:54:01.845Z,17.06
2019-04-07T11:55:02.499Z,17
2019-04-07T11:56:11.783Z,16.94
2019-04-07T11:57:01.074Z,17
2019-04-07T11:58:36.005Z,17.06
2019-04-07T11:59:01.527Z,17.19
2019-04-07T12:00:02.584Z,17.19
2019-04-07T12:01:00.440Z,17.25
2019-04-07T12:02:08.948Z,17.25
2019-04-07T12:03:01.019Z,17.31
2019-04-07T12:04:02.712Z,17.25
2019-04-07T12:05:00.449Z,17.19
2019-04-07T12:06:02.705Z,17.19
2019-04-07T12:07:00.430Z,17.19
2019-04-07T12:08:02.102Z,17.12
2019-04-07T12:09:00.526Z,17.12
2019-04-07T12:10:00.400Z,17.06
2019-04-07T12:11:06.832Z,17.12
2019-04-07T12:12:00.420Z,17.06
2019-04-07T12:13:00.563Z,17.06
2019-04-07T12:14:01.256Z,17.06
2019-04-07T12:15:00.441Z,17
2019-04-07T12:16:02.258Z,17
2019-04-07T12:17:15.043Z,17.06
2019-04-07T12:18:00.673Z,17.12
2019-04-07T12:19:00.581Z,17
2019-04-07T12:20:00.577Z,17.12
2019-04-07T12:21:08.896Z,17.19
2019-04-07T12:22:08.841Z,17.31
2019-04-07T12:23:01.511Z,17.44
2019-04-07T12:24:02.660Z,17.56
2019-04-07T12:25:06.941Z,17.62
2019-04-07T12:26:07.607Z,17.69
2019-04-07T12:27:02.204Z,17.75
2019-04-07T12:28:00.359Z,17.81
2019-04-07T12:29:02.392Z,17.87
2019-04-07T12:30:02.656Z,17.87
2019-04-07T12:31:00.320Z,18
2019-04-07T12:32:02.565Z,18
2019-04-07T12:33:00.405Z,18.06
2019-04-07T12:34:00.399Z,18.12
2019-04-07T12:35:01.312Z,18.12
2019-04-07T12:36:00.365Z,18.12
2019-04-07T12:37:09.013Z,18.19
2019-04-07T12:38:00.575Z,18.19
2019-04-07T12:39:00.337Z,18.25
2019-04-07T12:40:01.540Z,18.31
2019-04-07T12:41:24.597Z,18.37
2019-04-07T12:42:08.913Z,18.31
2019-04-07T12:43:00.621Z,18.37
2019-04-07T12:44:02.797Z,18.37
2019-04-07T12:45:00.405Z,18.37
2019-04-07T12:46:03.404Z,18.44
2019-04-07T12:47:00.341Z,18.44
2019-04-07T12:48:03.430Z,18.37
2019-04-07T12:49:00.417Z,18.37
2019-04-07T12:50:00.370Z,18.37
2019-04-07T12:51:03.048Z,18.37
2019-04-07T12:52:00.433Z,18.37
2019-04-07T12:53:08.119Z,18.37
2019-04-07T12:54:00.520Z,18.37
2019-04-07T12:55:01.980Z,18.31
2019-04-07T12:56:03.329Z,18.31
2019-04-07T12:57:10.647Z,18.37
2019-04-07T12:58:02.955Z,18.44
2019-04-07T12:59:01.601Z,18.37
2019-04-07T13:00:00.335Z,18.12
2019-04-07T13:01:21.306Z,18.12
2019-04-07T13:02:09.414Z,18.12
2019-04-07T13:03:00.339Z,18.12
2019-04-07T13:04:00.411Z,18.25
2019-04-07T13:05:08.835Z,18.25
2019-04-07T13:06:08.609Z,18.25
2019-04-07T13:07:00.283Z,18.25
2019-04-07T13:08:01.654Z,18.25
2019-04-07T13:09:01.183Z,18.25